createdAt,value
2023-04-15T00:00:37.735Z,3.63
2023-04-15T00:03:05.501Z,4.38
2023-04-15T00:05:32.449Z,4.57
2023-04-15T00:08:01.376Z,6.22
2023-04-15T00:10:28.160Z,4.72
2023-04-15T00:12:54.472Z,4.90
2023-04-15T00:15:20.823Z,4.38
2023-04-15T00:17:47.208Z,4.70
2023-04-15T00:20:13.490Z,5.15
2023-04-15T00:22:39.724Z,4.65
2023-04-15T00:25:06.126Z,4.28
2023-04-15T00:27:32.463Z,4.63
2023-04-15T00:29:58.998Z,4.65
2023-04-15T00:32:25.391Z,4.78
2023-04-15T00:34:52.414Z,4.55
2023-04-15T00:37:18.690Z,4.88
2023-04-15T00:39:45.228Z,4.47
2023-04-15T00:42:13.569Z,4.50
2023-04-15T00:44:39.878Z,4.47
2023-04-15T00:47:06.500Z,4.93
2023-04-15T00:49:33.102Z,5.35
2023-04-15T00:51:59.414Z,4.75
2023-04-15T00:54:25.696Z,4.40
2023-04-15T00:56:52.113Z,4.80
2023-04-15T00:59:18.501Z,5.95
2023-04-15T01:01:45.161Z,4.75
2023-04-15T01:04:12.367Z,4.60
2023-04-15T01:06:38.685Z,4.97
2023-04-15T01:09:05.159Z,5.22
2023-04-15T01:11:33.465Z,4.25
2023-04-15T01:14:00.079Z,4.60
2023-04-15T01:16:27.521Z,4.63
2023-04-15T01:18:54.339Z,4.82
2023-04-15T01:21:20.702Z,4.53
2023-04-15T01:23:47.709Z,4.70
2023-04-15T01:26:14.491Z,4.55
2023-04-15T01:28:40.791Z,4.28
2023-04-15T01:31:08.005Z,4.80
2023-04-15T01:33:34.415Z,4.82
2023-04-15T01:36:01.601Z,5.03
2023-04-15T01:38:28.388Z,4.60
2023-04-15T01:40:54.736Z,4.47
2023-04-15T01:43:21.048Z,5.32
2023-04-15T01:45:47.745Z,5.32
2023-04-15T01:48:14.014Z,4.45
2023-04-15T01:50:40.366Z,4.28
2023-04-15T01:53:06.672Z,4.80
2023-04-15T01:55:32.920Z,4.88
2023-04-15T01:57:59.246Z,4.80
2023-04-15T02:00:25.653Z,4.53
2023-04-15T02:02:52.017Z,4.28
2023-04-15T02:05:18.512Z,4.25
2023-04-15T02:07:45.346Z,4.57
2023-04-15T02:10:13.400Z,4.53
2023-04-15T02:12:39.688Z,4.55
2023-04-15T02:15:06.376Z,4.93
2023-04-15T02:17:36.442Z,4.10
2023-04-15T02:20:04.945Z,4.57
2023-04-15T02:22:31.395Z,4.35
2023-04-15T02:24:57.722Z,4.75
2023-04-15T02:27:23.965Z,5.00
2023-04-15T02:29:53.203Z,5.03
2023-04-15T02:32:20.179Z,4.45
2023-04-15T02:34:46.475Z,5.10
2023-04-15T02:37:13.234Z,5.15
2023-04-15T02:39:39.592Z,4.57
2023-04-15T02:42:08.897Z,5.10
2023-04-15T02:44:36.419Z,4.65
2023-04-15T02:47:03.561Z,4.70
2023-04-15T02:49:31.048Z,4.53
2023-04-15T02:51:58.270Z,5.15
2023-04-15T02:54:24.758Z,5.35
2023-04-15T02:56:51.114Z,5.45
2023-04-15T02:59:17.517Z,5.15
2023-04-15T03:01:43.968Z,5.13
2023-04-15T03:04:10.598Z,4.72
2023-04-15T03:06:37.155Z,5.93
2023-04-15T03:09:03.613Z,5.20
2023-04-15T03:11:29.949Z,5.03
2023-04-15T03:13:56.261Z,5.22
2023-04-15T03:16:22.572Z,5.35
2023-04-15T03:18:48.946Z,5.50
2023-04-15T03:21:15.496Z,5.55
2023-04-15T03:23:41.805Z,4.75
2023-04-15T03:26:08.069Z,6.47
2023-04-15T03:28:34.389Z,5.68
2023-04-15T03:31:01.018Z,5.50
2023-04-15T03:33:27.478Z,5.82
2023-04-15T03:35:53.725Z,5.35
2023-04-15T03:38:20.075Z,5.65
2023-04-15T03:40:47.107Z,5.82
2023-04-15T03:43:13.469Z,6.35
2023-04-15T03:45:39.805Z,6.03
2023-04-15T03:48:16.678Z,5.68
2023-04-15T03:50:43.815Z,5.30
2023-04-15T03:53:10.321Z,5.35
2023-04-15T03:55:37.084Z,6.10
2023-04-15T03:58:03.498Z,5.93
2023-04-15T04:00:29.860Z,5.75
2023-04-15T04:02:56.527Z,5.97
2023-04-15T04:05:23.139Z,5.85
2023-04-15T04:07:49.496Z,6.15
2023-04-15T04:10:15.900Z,5.30
2023-04-15T04:12:42.191Z,6.00
2023-04-15T04:15:08.675Z,6.55
2023-04-15T04:17:35.030Z,5.88
2023-04-15T04:20:01.341Z,5.63
2023-04-15T04:22:27.696Z,6.47
2023-04-15T04:24:53.992Z,5.97
2023-04-15T04:27:20.329Z,5.60
2023-04-15T04:29:47.867Z,5.05
2023-04-15T04:32:14.370Z,6.13
2023-04-15T04:34:40.745Z,6.25
2023-04-15T04:37:07.276Z,6.63
2023-04-15T04:39:33.766Z,5.43
2023-04-15T04:42:00.134Z,6.43
2023-04-15T04:44:27.106Z,5.90
2023-04-15T04:46:53.510Z,5.97
2023-04-15T04:49:19.819Z,6.28
2023-04-15T04:51:47.023Z,6.68
2023-04-15T04:54:13.541Z,6.25
2023-04-15T04:56:39.825Z,6.78
2023-04-15T04:59:06.982Z,7.38
2023-04-15T05:01:33.564Z,6.97
2023-04-15T05:04:00.256Z,7.05
2023-04-15T05:06:27.771Z,6.40
2023-04-15T05:08:54.080Z,6.68
2023-04-15T05:11:20.322Z,6.78
2023-04-15T05:13:46.687Z,6.78
2023-04-15T05:16:13.072Z,6.72
2023-04-15T05:18:39.497Z,7.68
2023-04-15T05:21:06.236Z,6.18
2023-04-15T05:23:32.543Z,6.82
2023-04-15T05:25:58.905Z,6.93
2023-04-15T05:28:25.615Z,6.88
2023-04-15T05:30:52.015Z,6.55
2023-04-15T05:33:19.075Z,6.85
2023-04-15T05:35:45.483Z,7.15
2023-04-15T05:38:11.822Z,6.60
2023-04-15T05:40:38.127Z,6.25
2023-04-15T05:43:04.460Z,6.13
2023-04-15T05:45:30.809Z,7.07
2023-04-15T05:47:57.157Z,6.97
2023-04-15T05:50:23.562Z,6.18
2023-04-15T05:52:49.962Z,6.93
2023-04-15T05:55:16.490Z,6.47
2023-04-15T05:57:42.812Z,6.78
2023-04-15T06:00:10.128Z,6.30
2023-04-15T06:02:37.061Z,6.70
2023-04-15T06:05:04.054Z,6.78
2023-04-15T06:07:30.410Z,6.65
2023-04-15T06:09:56.873Z,6.47
2023-04-15T06:12:23.144Z,6.50
2023-04-15T06:14:49.502Z,7.00
2023-04-15T06:17:18.396Z,7.20
2023-04-15T06:19:44.751Z,7.40
2023-04-15T06:22:11.228Z,6.72
2023-04-15T06:24:37.756Z,7.18
2023-04-15T06:27:04.169Z,7.00
2023-04-15T06:29:30.655Z,7.57
2023-04-15T06:31:57.608Z,7.63
2023-04-15T06:34:24.041Z,7.47
2023-04-15T06:36:50.303Z,7.90
2023-04-15T06:39:16.647Z,8.27
2023-04-15T06:41:43.137Z,7.82
2023-04-15T06:44:09.527Z,8.05
2023-04-15T06:46:35.875Z,7.63
2023-04-15T06:49:03.589Z,7.68
2023-04-15T06:51:31.070Z,8.10
2023-04-15T06:53:57.856Z,8.63
2023-04-15T06:56:24.129Z,8.80
2023-04-15T06:58:50.632Z,8.75
2023-04-15T07:01:17.293Z,7.65
2023-04-15T07:03:43.581Z,8.07
2023-04-15T07:06:10.164Z,7.82
2023-04-15T07:08:36.718Z,8.25
2023-04-15T07:11:03.003Z,8.32
2023-04-15T07:13:31.019Z,7.30
2023-04-15T07:15:57.316Z,8.25
2023-04-15T07:18:23.640Z,8.15
2023-04-15T07:20:49.982Z,9.13
2023-04-15T07:23:16.627Z,7.40
2023-04-15T07:25:42.868Z,7.80
2023-04-15T07:28:09.305Z,8.35
2023-04-15T07:30:35.633Z,7.53
2023-04-15T07:33:02.219Z,7.45
2023-04-15T07:35:29.535Z,8.27
2023-04-15T07:37:56.211Z,6.72
2023-04-15T07:40:22.564Z,7.40
2023-04-15T07:42:49.519Z,7.28
2023-04-15T07:45:16.358Z,6.57
2023-04-15T07:47:42.847Z,7.78
2023-04-15T07:50:10.645Z,7.65
2023-04-15T07:52:39.382Z,7.75
2023-04-15T07:55:07.425Z,7.30
2023-04-15T07:57:34.378Z,7.30
2023-04-15T08:00:00.722Z,6.88
2023-04-15T08:02:27.261Z,7.15
2023-04-15T08:04:54.117Z,7.28
2023-04-15T08:07:21.235Z,6.05
2023-04-15T08:09:48.163Z,6.43
2023-04-15T08:12:14.867Z,6.38
2023-04-15T08:14:41.177Z,5.75
2023-04-15T08:17:07.503Z,5.30
2023-04-15T08:19:34.161Z,5.15
2023-04-15T08:22:00.556Z,4.65
2023-04-15T08:24:27.356Z,4.72
2023-04-15T08:26:53.649Z,4.55
2023-04-15T08:29:19.962Z,4.20
2023-04-15T08:31:47.608Z,4.75
2023-04-15T08:34:14.144Z,5.40
2023-04-15T08:36:40.487Z,5.88
2023-04-15T08:39:06.963Z,5.55
2023-04-15T08:41:47.768Z,5.78
2023-04-15T08:44:14.414Z,5.65
2023-04-15T08:46:42.570Z,5.50
2023-04-15T08:49:10.419Z,4.80
2023-04-15T08:51:36.785Z,4.88
2023-04-15T08:54:03.413Z,4.35
2023-04-15T08:56:31.841Z,4.95
2023-04-15T08:58:58.848Z,4.35
2023-04-15T09:01:25.595Z,5.00
2023-04-15T09:03:54.212Z,4.35
2023-04-15T09:06:21.636Z,4.97
2023-04-15T09:08:47.999Z,5.05
2023-04-15T09:11:14.306Z,4.70
2023-04-15T09:13:40.604Z,4.32
2023-04-15T09:16:06.990Z,3.45
2023-04-15T09:18:33.991Z,3.97
2023-04-15T09:21:08.824Z,2.80
2023-04-15T09:23:35.872Z,3.00
2023-04-15T09:26:02.735Z,3.67
2023-04-15T09:28:29.867Z,3.20
2023-04-15T09:30:57.620Z,3.90
2023-04-15T09:33:24.412Z,4.22
2023-04-15T09:36:00.953Z,4.45
2023-04-15T09:38:27.689Z,3.92
2023-04-15T09:40:54.264Z,3.85
2023-04-15T09:43:20.755Z,4.53
2023-04-15T09:45:49.062Z,4.40
2023-04-15T09:48:21.090Z,4.55
2023-04-15T09:50:49.083Z,4.43
2023-04-15T09:53:19.419Z,4.68
2023-04-15T09:55:46.628Z,4.97
2023-04-15T09:58:19.785Z,4.10
2023-04-15T10:00:47.483Z,4.15
2023-04-15T10:03:15.443Z,4.32
2023-04-15T10:05:42.193Z,3.38
2023-04-15T10:08:09.464Z,3.65
2023-04-15T10:10:35.758Z,3.72
2023-04-15T10:13:02.592Z,3.45
2023-04-15T10:15:30.014Z,3.08
2023-04-15T10:17:57.368Z,2.90
2023-04-15T10:20:24.046Z,2.58
2023-04-15T10:22:51.134Z,3.55
2023-04-15T10:25:18.360Z,3.55
2023-04-15T10:27:45.168Z,3.83
2023-04-15T10:30:12.161Z,3.15
2023-04-15T10:32:39.141Z,3.15
2023-04-15T10:35:06.297Z,2.28
2023-04-15T10:37:34.190Z,2.92
2023-04-15T10:40:00.582Z,2.72
2023-04-15T10:42:33.668Z,2.83
2023-04-15T10:45:00.150Z,2.78
2023-04-15T10:47:26.463Z,2.40
2023-04-15T10:49:57.974Z,2.28
2023-04-15T10:52:25.792Z,2.10
2023-04-15T10:55:02.139Z,2.58
2023-04-15T10:57:34.671Z,2.30
2023-04-15T11:00:14.102Z,2.60
2023-04-15T11:02:47.640Z,2.05
2023-04-15T11:05:14.802Z,2.10
2023-04-15T11:07:41.222Z,2.00
2023-04-15T11:10:13.215Z,2.10
2023-04-15T11:12:39.915Z,3.15
2023-04-15T11:15:24.879Z,2.58
2023-04-15T11:17:51.749Z,2.70
2023-04-15T11:20:18.472Z,2.42
2023-04-15T11:22:51.776Z,2.25
2023-04-15T11:25:24.944Z,1.88
2023-04-15T11:27:52.539Z,2.22
2023-04-15T11:30:21.596Z,2.60
2023-04-15T11:32:55.075Z,2.63
2023-04-15T11:35:22.020Z,2.63
2023-04-15T11:37:49.700Z,2.67
2023-04-15T11:40:17.574Z,2.95
2023-04-15T11:42:49.875Z,2.15
2023-04-15T11:45:16.351Z,4.20
2023-04-15T11:47:42.918Z,2.78
2023-04-15T11:50:22.367Z,2.13
2023-04-15T11:52:54.554Z,2.10
2023-04-15T11:55:21.197Z,2.30
2023-04-15T11:57:47.502Z,2.55
2023-04-15T12:00:14.217Z,2.20
2023-04-15T12:02:40.757Z,1.65
2023-04-15T12:05:07.289Z,2.20
2023-04-15T12:07:33.573Z,1.55
2023-04-15T12:10:00.052Z,1.70
2023-04-15T12:12:29.163Z,1.60
2023-04-15T12:14:57.057Z,1.50
2023-04-15T12:17:23.647Z,1.70
2023-04-15T12:19:56.109Z,1.52
2023-04-15T12:22:22.939Z,1.63
2023-04-15T12:24:54.400Z,2.28
2023-04-15T12:27:21.178Z,1.85
2023-04-15T12:29:47.676Z,1.80
2023-04-15T12:32:17.321Z,1.55
2023-04-15T12:34:49.443Z,1.90
2023-04-15T12:37:15.929Z,2.55
2023-04-15T12:39:43.631Z,1.70
2023-04-15T12:42:10.164Z,1.83
2023-04-15T12:44:37.025Z,1.45
2023-04-15T12:47:03.562Z,1.67
2023-04-15T12:49:30.776Z,1.63
2023-04-15T12:51:57.961Z,1.45
2023-04-15T12:54:24.422Z,1.75
2023-04-15T12:56:51.179Z,1.75
2023-04-15T12:59:18.546Z,1.83
2023-04-15T13:01:45.296Z,2.13
2023-04-15T13:04:11.667Z,1.77
2023-04-15T13:06:38.471Z,1.63
2023-04-15T13:09:05.835Z,1.60
2023-04-15T13:11:33.822Z,1.70
2023-04-15T13:14:00.913Z,2.38
2023-04-15T13:16:27.448Z,1.75
2023-04-15T13:18:53.752Z,1.80
2023-04-15T13:21:20.224Z,1.88
2023-04-15T13:23:46.594Z,1.73
2023-04-15T13:26:12.954Z,1.80
2023-04-15T13:28:39.488Z,1.75
2023-04-15T13:31:06.089Z,1.67
2023-04-15T13:33:32.493Z,1.75
2023-04-15T13:35:59.216Z,1.65
2023-04-15T13:38:26.168Z,1.75
2023-04-15T13:40:52.770Z,1.40
2023-04-15T13:43:19.041Z,2.05
2023-04-15T13:45:46.687Z,1.33
2023-04-15T13:48:13.116Z,1.50
2023-04-15T13:50:41.217Z,1.30
2023-04-15T13:53:08.031Z,1.67
2023-04-15T13:55:35.537Z,1.20
2023-04-15T13:58:01.921Z,1.10
2023-04-15T14:00:28.283Z,1.10
2023-04-15T14:02:54.899Z,1.30
2023-04-15T14:05:21.759Z,1.35
2023-04-15T14:07:48.006Z,1.48
2023-04-15T14:10:14.351Z,1.30
2023-04-15T14:12:41.097Z,1.35
2023-04-15T14:15:07.850Z,0.82
2023-04-15T14:17:34.471Z,1.42
2023-04-15T14:20:00.961Z,1.38
2023-04-15T14:22:27.458Z,1.65
2023-04-15T14:24:55.513Z,2.00
2023-04-15T14:27:22.144Z,1.58
2023-04-15T14:29:48.445Z,1.50
2023-04-15T14:32:16.777Z,1.60
2023-04-15T14:34:43.579Z,1.63
2023-04-15T14:37:10.013Z,1.85
2023-04-15T14:39:36.350Z,1.60
2023-04-15T14:42:02.641Z,1.58
2023-04-15T14:44:29.263Z,1.20
2023-04-15T14:46:55.854Z,0.95
2023-04-15T14:49:22.901Z,1.00
2023-04-15T14:51:49.308Z,1.70
2023-04-15T14:54:15.665Z,1.58
2023-04-15T14:56:41.974Z,1.80
2023-04-15T14:59:08.279Z,1.60
2023-04-15T15:01:34.692Z,1.10
2023-04-15T15:04:01.280Z,1.10
2023-04-15T15:06:27.779Z,1.33
2023-04-15T15:08:54.071Z,1.20
2023-04-15T15:11:21.025Z,1.67
2023-04-15T15:13:47.340Z,1.80
2023-04-15T15:16:14.584Z,1.88
2023-04-15T15:18:41.107Z,0.90
2023-04-15T15:21:07.556Z,1.00
2023-04-15T15:23:33.928Z,1.55
2023-04-15T15:26:00.307Z,1.90
2023-04-15T15:28:26.822Z,1.10
2023-04-15T15:30:53.219Z,1.60
2023-04-15T15:33:20.733Z,1.50
2023-04-15T15:35:47.141Z,1.42
2023-04-15T15:38:13.735Z,1.33
2023-04-15T15:40:40.260Z,1.00
2023-04-15T15:43:06.543Z,1.40
2023-04-15T15:45:32.980Z,1.55
2023-04-15T15:48:00.213Z,1.20
2023-04-15T15:50:26.811Z,1.10
2023-04-15T15:52:53.160Z,1.20
2023-04-15T15:55:19.536Z,1.63
2023-04-15T15:57:46.432Z,1.48
2023-04-15T16:00:13.211Z,1.13
2023-04-15T16:03:05.096Z,1.15
2023-04-15T16:05:25.839Z,1.60
2023-04-15T16:07:52.250Z,1.77
2023-04-15T16:10:18.638Z,1.88
2023-04-15T16:12:44.924Z,1.30
2023-04-15T16:15:12.098Z,1.50
2023-04-15T16:17:38.531Z,1.55
2023-04-15T16:20:07.872Z,2.17
2023-04-15T16:22:34.935Z,1.17
2023-04-15T16:25:02.476Z,1.33
2023-04-15T16:27:29.119Z,1.20
2023-04-15T16:29:55.657Z,1.30
2023-04-15T16:32:22.090Z,1.30
2023-04-15T16:34:48.528Z,1.20
2023-04-15T16:37:14.818Z,1.08
2023-04-15T16:39:41.405Z,1.40
2023-04-15T16:42:07.920Z,1.25
2023-04-15T16:44:34.240Z,1.45
2023-04-15T16:47:02.238Z,1.42
2023-04-15T16:49:29.175Z,1.25
2023-04-15T16:51:55.609Z,1.15
2023-04-15T16:54:21.935Z,1.23
2023-04-15T16:56:48.201Z,1.23
2023-04-15T16:59:14.443Z,1.55
2023-04-15T17:01:40.946Z,1.63
2023-04-15T17:04:07.384Z,1.48
2023-04-15T17:06:33.744Z,1.10
2023-04-15T17:09:00.370Z,0.90
2023-04-15T17:11:27.466Z,0.98
2023-04-15T17:13:53.786Z,1.50
2023-04-15T17:16:20.203Z,1.13
2023-04-15T17:18:47.458Z,1.27
2023-04-15T17:21:15.193Z,0.88
2023-04-15T17:23:41.444Z,1.23
2023-04-15T17:26:07.989Z,1.63
2023-04-15T17:28:34.350Z,1.10
2023-04-15T17:31:01.273Z,1.27
2023-04-15T17:33:55.856Z,1.13
2023-04-15T17:36:13.787Z,1.45
2023-04-15T17:38:40.297Z,1.83
2023-04-15T17:41:07.859Z,1.88
2023-04-15T17:43:34.227Z,1.90
2023-04-15T17:46:00.649Z,11.68
2023-04-15T17:48:27.331Z,1.63
2023-04-15T17:50:53.695Z,1.33
2023-04-15T17:53:20.016Z,2.03
2023-04-15T17:55:46.468Z,1.42
2023-04-15T17:58:12.820Z,1.40
2023-04-15T18:00:39.131Z,1.65
2023-04-15T18:03:05.684Z,1.58
2023-04-15T18:05:32.106Z,1.67
2023-04-15T18:07:58.438Z,1.23
2023-04-15T18:10:24.818Z,1.42
2023-04-15T18:12:51.115Z,1.30
2023-04-15T18:15:17.502Z,1.38
2023-04-15T18:17:43.939Z,1.67
2023-04-15T18:20:10.647Z,1.08
2023-04-15T18:22:37.025Z,0.93
2023-04-15T18:25:04.327Z,1.55
2023-04-15T18:27:32.063Z,2.63
2023-04-15T18:29:58.476Z,1.80
2023-04-15T18:32:25.348Z,1.75
2023-04-15T18:34:51.706Z,2.03
2023-04-15T18:37:18.026Z,1.20
2023-04-15T18:39:44.327Z,1.30
2023-04-15T18:42:10.555Z,1.10
2023-04-15T18:44:37.004Z,1.63
2023-04-15T18:47:03.502Z,1.15
2023-04-15T18:49:32.986Z,1.05
2023-04-15T18:51:59.414Z,1.00
2023-04-15T18:54:25.708Z,1.05
2023-04-15T18:56:52.094Z,1.05
2023-04-15T18:59:29.648Z,1.30
2023-04-15T19:01:57.531Z,1.27
2023-04-15T19:04:24.007Z,0.98
2023-04-15T19:06:50.309Z,1.80
2023-04-15T19:09:16.865Z,1.83
2023-04-15T19:11:43.723Z,1.20
2023-04-15T19:14:10.371Z,1.35
2023-04-15T19:16:36.724Z,1.50
2023-04-15T19:19:03.148Z,1.50
2023-04-15T19:21:30.447Z,1.25
2023-04-15T19:23:57.332Z,1.20
2023-04-15T19:26:23.775Z,1.38
2023-04-15T19:28:50.088Z,1.92
2023-04-15T19:31:16.580Z,1.73
2023-04-15T19:33:42.908Z,1.20
2023-04-15T19:36:09.289Z,1.20
2023-04-15T19:38:36.121Z,1.10
2023-04-15T19:41:02.510Z,1.52
2023-04-15T19:43:29.073Z,1.25
2023-04-15T19:45:55.644Z,1.50
2023-04-15T19:48:22.826Z,1.60
2023-04-15T19:50:49.133Z,1.92
2023-04-15T19:53:15.509Z,1.05
2023-04-15T19:55:41.915Z,1.25
2023-04-15T19:58:08.192Z,1.02
2023-04-15T20:00:34.528Z,1.30
2023-04-15T20:03:01.458Z,1.52
2023-04-15T20:05:27.896Z,1.58
2023-04-15T20:07:54.464Z,1.08
2023-04-15T20:10:20.940Z,1.30
2023-04-15T20:12:52.011Z,1.50
2023-04-15T20:15:20.008Z,1.73
2023-04-15T20:17:46.392Z,1.73
2023-04-15T20:20:12.822Z,1.38
2023-04-15T20:22:39.154Z,1.58
2023-04-15T20:25:05.667Z,1.25
2023-04-15T20:27:31.917Z,1.50
2023-04-15T20:29:58.280Z,1.55
2023-04-15T20:32:24.611Z,1.52
2023-04-15T20:34:51.166Z,2.03
2023-04-15T20:37:17.835Z,1.75
2023-04-15T20:39:44.393Z,1.15
2023-04-15T20:42:10.747Z,2.30
2023-04-15T20:44:38.587Z,1.80
2023-04-15T20:47:08.015Z,1.70
2023-04-15T20:49:35.061Z,2.17
2023-04-15T20:52:01.644Z,2.30
2023-04-15T20:54:28.183Z,1.52
2023-04-15T20:56:59.091Z,2.00
2023-04-15T20:59:25.611Z,1.58
2023-04-15T21:01:52.110Z,1.77
2023-04-15T21:04:18.995Z,1.27
2023-04-15T21:06:45.436Z,2.20
2023-04-15T21:09:11.718Z,2.00
2023-04-15T21:11:57.472Z,2.03
2023-04-15T21:14:24.321Z,2.50
2023-04-15T21:16:50.716Z,1.58
2023-04-15T21:19:17.170Z,2.60
2023-04-15T21:21:43.489Z,1.98
2023-04-15T21:24:09.839Z,1.67
2023-04-15T21:26:36.289Z,2.40
2023-04-15T21:29:03.177Z,3.33
2023-04-15T21:31:30.192Z,1.70
2023-04-15T21:33:56.645Z,1.77
2023-04-15T21:36:23.027Z,1.70
2023-04-15T21:38:49.446Z,1.65
2023-04-15T21:41:15.808Z,1.60
2023-04-15T21:43:42.127Z,1.98
2023-04-15T21:46:23.612Z,2.22
2023-04-15T21:48:52.708Z,2.03
2023-04-15T21:51:19.056Z,2.00
2023-04-15T21:53:45.617Z,1.80
2023-04-15T21:56:12.002Z,1.75
2023-04-15T21:58:38.285Z,1.75
2023-04-15T22:01:04.797Z,1.65
2023-04-15T22:03:33.451Z,1.80
2023-04-15T22:06:01.761Z,1.88
2023-04-15T22:08:28.131Z,1.70
2023-04-15T22:10:54.766Z,2.30
2023-04-15T22:13:21.105Z,1.85
2023-04-15T22:15:47.519Z,1.83
2023-04-15T22:18:13.830Z,2.50
2023-04-15T22:20:40.486Z,1.83
2023-04-15T22:23:09.976Z,1.65
2023-04-15T22:25:37.196Z,1.92
2023-04-15T22:28:08.234Z,1.80
2023-04-15T22:30:41.356Z,2.33
2023-04-15T22:33:08.173Z,2.33
2023-04-15T22:35:36.047Z,2.20
2023-04-15T22:38:02.665Z,2.10
2023-04-15T22:40:29.287Z,1.92
2023-04-15T22:42:55.708Z,2.38
2023-04-15T22:45:22.164Z,2.60
2023-04-15T22:47:48.474Z,3.08
2023-04-15T22:50:14.777Z,2.35
2023-04-15T22:52:41.169Z,2.42
2023-04-15T22:55:07.928Z,2.40
2023-04-15T22:57:34.182Z,2.70
2023-04-15T23:00:00.601Z,2.50
2023-04-15T23:02:27.366Z,2.70
2023-04-15T23:04:54.047Z,2.33
2023-04-15T23:07:20.544Z,2.33
2023-04-15T23:09:46.863Z,2.67
2023-04-15T23:12:13.411Z,2.72
2023-04-15T23:14:39.705Z,1.90
2023-04-15T23:17:06.157Z,2.80
2023-04-15T23:19:32.461Z,3.47
2023-04-15T23:21:58.749Z,2.22
2023-04-15T23:24:25.381Z,2.55
2023-04-15T23:26:53.040Z,2.63
2023-04-15T23:29:19.331Z,2.90
2023-04-15T23:31:45.773Z,4.00
2023-04-15T23:34:12.080Z,3.13
2023-04-15T23:36:38.478Z,3.05
2023-04-15T23:39:04.801Z,2.78
2023-04-15T23:41:31.138Z,3.42
2023-04-15T23:43:57.444Z,3.08
2023-04-15T23:46:23.841Z,3.50
2023-04-15T23:48:50.164Z,2.85
2023-04-15T23:51:16.448Z,2.80
2023-04-15T23:53:42.779Z,3.08
2023-04-15T23:56:09.110Z,3.22
2023-04-15T23:58:35.521Z,3.08
